sensor_id;sensor_type;location;lat;lon;timestamp;temperature;humidity
6672;DHT22;3372;48.690;12.362;2022-10-16T00:01:24;17.40;99.90
6672;DHT22;3372;48.690;12.362;2022-10-16T00:03:50;17.50;99.90
6672;DHT22;3372;48.690;12.362;2022-10-16T00:06:17;17.40;99.90
6672;DHT22;3372;48.690;12.362;2022-10-16T00:08:44;17.40;99.90
6672;DHT22;3372;48.690;12.362;2022-10-16T00:13:41;17.40;99.90
6672;DHT22;3372;48.690;12.362;2022-10-16T00:16:07;17.50;99.90
6672;DHT22;3372;48.690;12.362;2022-10-16T00:18:34;17.40;99.90
6672;DHT22;3372;48.690;12.362;2022-10-16T00:21:05;17.40;99.90
6672;DHT22;3372;48.690;12.362;2022-10-16T00:23:32;17.40;99.90
6672;DHT22;3372;48.690;12.362;2022-10-16T00:26:00;17.40;99.90
6672;DHT22;3372;48.690;12.362;2022-10-16T00:28:26;17.40;99.90
6672;DHT22;3372;48.690;12.362;2022-10-16T00:30:53;17.30;99.90
6672;DHT22;3372;48.690;12.362;2022-10-16T00:33:19;17.30;99.90
6672;DHT22;3372;48.690;12.362;2022-10-16T00:35:45;17.30;99.90
6672;DHT22;3372;48.690;12.362;2022-10-16T00:38:11;17.30;99.90
6672;DHT22;3372;48.690;12.362;2022-10-16T00:40:36;17.30;99.90
6672;DHT22;3372;48.690;12.362;2022-10-16T00:43:02;17.30;99.90
6672;DHT22;3372;48.690;12.362;2022-10-16T00:45:28;17.30;99.90
6672;DHT22;3372;48.690;12.362;2022-10-16T00:47:55;17.20;99.90
6672;DHT22;3372;48.690;12.362;2022-10-16T00:50:30;17.20;99.90
6672;DHT22;3372;48.690;12.362;2022-10-16T00:52:57;17.20;99.90
6672;DHT22;3372;48.690;12.362;2022-10-16T00:55:24;17.20;99.90
6672;DHT22;3372;48.690;12.362;2022-10-16T00:57:50;17.20;99.90
6672;DHT22;3372;48.690;12.362;2022-10-16T01:00:21;17.10;99.90
6672;DHT22;3372;48.690;12.362;2022-10-16T01:02:58;17.10;99.90
6672;DHT22;3372;48.690;12.362;2022-10-16T01:05:33;17.00;99.90
6672;DHT22;3372;48.690;12.362;2022-10-16T01:08:21;17.00;99.90
6672;DHT22;3372;48.690;12.362;2022-10-16T01:11:38;17.00;99.90
6672;DHT22;3372;48.690;12.362;2022-10-16T01:17:06;16.90;99.90
6672;DHT22;3372;48.690;12.362;2022-10-16T01:20:03;16.80;99.90
6672;DHT22;3372;48.690;12.362;2022-10-16T01:28:22;16.70;99.90
6672;DHT22;3372;48.690;12.362;2022-10-16T01:30:53;16.70;99.90
6672;DHT22;3372;48.690;12.362;2022-10-16T01:33:26;16.70;99.90
6672;DHT22;3372;48.690;12.362;2022-10-16T01:35:58;16.70;99.90
6672;DHT22;3372;48.690;12.362;2022-10-16T01:38:37;16.60;99.90
6672;DHT22;3372;48.690;12.362;2022-10-16T01:41:12;16.60;99.90
6672;DHT22;3372;48.690;12.362;2022-10-16T01:43:59;16.60;99.90
6672;DHT22;3372;48.690;12.362;2022-10-16T01:46:28;16.60;99.90
6672;DHT22;3372;48.690;12.362;2022-10-16T01:48:55;16.60;99.90
6672;DHT22;3372;48.690;12.362;2022-10-16T01:51:22;16.60;99.90
6672;DHT22;3372;48.690;12.362;2022-10-16T01:53:52;16.50;99.90
6672;DHT22;3372;48.690;12.362;2022-10-16T01:56:18;16.50;99.90
6672;DHT22;3372;48.690;12.362;2022-10-16T01:58:53;16.60;99.90
6672;DHT22;3372;48.690;12.362;2022-10-16T02:01:22;16.60;99.90
6672;DHT22;3372;48.690;12.362;2022-10-16T02:03:51;16.50;99.90
6672;DHT22;3372;48.690;12.362;2022-10-16T02:06:17;16.50;99.90
6672;DHT22;3372;48.690;12.362;2022-10-16T02:08:43;16.60;99.90
6672;DHT22;3372;48.690;12.362;2022-10-16T02:11:10;16.50;99.90
6672;DHT22;3372;48.690;12.362;2022-10-16T02:14:01;16.50;99.90
6672;DHT22;3372;48.690;12.362;2022-10-16T02:16:43;16.40;99.90
6672;DHT22;3372;48.690;12.362;2022-10-16T02:19:09;16.40;99.90
6672;DHT22;3372;48.690;12.362;2022-10-16T02:24:29;16.30;99.90
6672;DHT22;3372;48.690;12.362;2022-10-16T02:29:27;16.30;99.90
6672;DHT22;3372;48.690;12.362;2022-10-16T02:32:00;16.20;99.90
6672;DHT22;3372;48.690;12.362;2022-10-16T02:34:27;16.20;99.90
6672;DHT22;3372;48.690;12.362;2022-10-16T02:36:56;16.20;99.90
6672;DHT22;3372;48.690;12.362;2022-10-16T02:39:22;16.20;99.90
6672;DHT22;3372;48.690;12.362;2022-10-16T02:41:48;16.20;99.90
6672;DHT22;3372;48.690;12.362;2022-10-16T02:44:14;16.20;99.90
6672;DHT22;3372;48.690;12.362;2022-10-16T02:46:40;16.10;99.90
6672;DHT22;3372;48.690;12.362;2022-10-16T02:49:05;16.20;99.90
6672;DHT22;3372;48.690;12.362;2022-10-16T02:51:31;16.10;99.90
6672;DHT22;3372;48.690;12.362;2022-10-16T02:53:56;16.10;99.90
6672;DHT22;3372;48.690;12.362;2022-10-16T02:56:22;16.10;99.90
6672;DHT22;3372;48.690;12.362;2022-10-16T02:58:48;16.10;99.90
6672;DHT22;3372;48.690;12.362;2022-10-16T03:01:13;16.00;99.90
6672;DHT22;3372;48.690;12.362;2022-10-16T03:03:42;16.00;99.90
6672;DHT22;3372;48.690;12.362;2022-10-16T03:06:07;16.10;99.90
6672;DHT22;3372;48.690;12.362;2022-10-16T03:08:33;16.00;99.90
6672;DHT22;3372;48.690;12.362;2022-10-16T03:10:58;16.00;99.90
6672;DHT22;3372;48.690;12.362;2022-10-16T03:13:24;16.00;99.90
6672;DHT22;3372;48.690;12.362;2022-10-16T03:15:49;16.00;99.90
6672;DHT22;3372;48.690;12.362;2022-10-16T03:18:15;16.00;99.90
6672;DHT22;3372;48.690;12.362;2022-10-16T03:20:42;16.00;99.90
6672;DHT22;3372;48.690;12.362;2022-10-16T03:23:07;16.00;99.90
6672;DHT22;3372;48.690;12.362;2022-10-16T03:25:33;16.00;99.90
6672;DHT22;3372;48.690;12.362;2022-10-16T03:27:59;16.00;99.90
6672;DHT22;3372;48.690;12.362;2022-10-16T03:30:25;16.00;99.90
6672;DHT22;3372;48.690;12.362;2022-10-16T03:32:50;16.00;99.90
6672;DHT22;3372;48.690;12.362;2022-10-16T03:35:19;15.90;99.90
6672;DHT22;3372;48.690;12.362;2022-10-16T03:37:45;16.00;99.90
6672;DHT22;3372;48.690;12.362;2022-10-16T03:40:11;15.90;99.90
6672;DHT22;3372;48.690;12.362;2022-10-16T03:42:36;16.00;99.90
6672;DHT22;3372;48.690;12.362;2022-10-16T03:45:02;15.90;99.90
6672;DHT22;3372;48.690;12.362;2022-10-16T03:47:28;15.90;99.90
6672;DHT22;3372;48.690;12.362;2022-10-16T03:49:54;15.90;99.90
6672;DHT22;3372;48.690;12.362;2022-10-16T03:52:19;15.90;99.90
6672;DHT22;3372;48.690;12.362;2022-10-16T03:54:45;15.80;99.90
6672;DHT22;3372;48.690;12.362;2022-10-16T03:57:10;15.80;99.90
6672;DHT22;3372;48.690;12.362;2022-10-16T03:59:36;15.80;99.90
6672;DHT22;3372;48.690;12.362;2022-10-16T04:02:01;15.80;99.90
6672;DHT22;3372;48.690;12.362;2022-10-16T04:04:27;15.80;99.90
6672;DHT22;3372;48.690;12.362;2022-10-16T04:06:52;15.80;99.90
6672;DHT22;3372;48.690;12.362;2022-10-16T04:09:18;15.70;99.90
6672;DHT22;3372;48.690;12.362;2022-10-16T04:11:44;15.70;99.90
6672;DHT22;3372;48.690;12.362;2022-10-16T04:14:09;15.70;99.90
6672;DHT22;3372;48.690;12.362;2022-10-16T04:16:35;15.60;99.90
6672;DHT22;3372;48.690;12.362;2022-10-16T04:19:00;15.70;99.90
6672;DHT22;3372;48.690;12.362;2022-10-16T04:21:26;15.70;99.90
6672;DHT22;3372;48.690;12.362;2022-10-16T04:23:51;15.70;99.90
6672;DHT22;3372;48.690;12.362;2022-10-16T04:26:17;15.70;99.90
6672;DHT22;3372;48.690;12.362;2022-10-16T04:28:43;15.70;99.90
6672;DHT22;3372;48.690;12.362;2022-10-16T04:31:08;15.60;99.90
6672;DHT22;3372;48.690;12.362;2022-10-16T04:33:34;15.70;99.90
6672;DHT22;3372;48.690;12.362;2022-10-16T04:36:01;15.70;99.90
6672;DHT22;3372;48.690;12.362;2022-10-16T04:38:27;15.80;99.90
6672;DHT22;3372;48.690;12.362;2022-10-16T04:40:53;15.70;99.90
6672;DHT22;3372;48.690;12.362;2022-10-16T04:43:19;15.70;99.90
6672;DHT22;3372;48.690;12.362;2022-10-16T04:45:44;15.70;99.90
6672;DHT22;3372;48.690;12.362;2022-10-16T04:48:10;15.80;99.90
6672;DHT22;3372;48.690;12.362;2022-10-16T04:50:36;15.80;99.90
6672;DHT22;3372;48.690;12.362;2022-10-16T04:53:01;15.90;99.90
6672;DHT22;3372;48.690;12.362;2022-10-16T04:55:27;15.80;99.90
6672;DHT22;3372;48.690;12.362;2022-10-16T04:57:53;15.90;99.90
6672;DHT22;3372;48.690;12.362;2022-10-16T05:00:18;15.90;99.90
6672;DHT22;3372;48.690;12.362;2022-10-16T05:02:44;15.80;99.90
6672;DHT22;3372;48.690;12.362;2022-10-16T05:05:10;15.90;99.90
6672;DHT22;3372;48.690;12.362;2022-10-16T05:07:35;15.90;99.90
6672;DHT22;3372;48.690;12.362;2022-10-16T05:10:01;15.90;99.90
6672;DHT22;3372;48.690;12.362;2022-10-16T05:12:26;15.90;99.90
6672;DHT22;3372;48.690;12.362;2022-10-16T05:14:52;15.90;99.90
6672;DHT22;3372;48.690;12.362;2022-10-16T05:17:18;16.00;99.90
6672;DHT22;3372;48.690;12.362;2022-10-16T05:19:43;16.00;99.90
6672;DHT22;3372;48.690;12.362;2022-10-16T05:22:09;16.00;99.90
6672;DHT22;3372;48.690;12.362;2022-10-16T05:24:34;16.00;99.90
6672;DHT22;3372;48.690;12.362;2022-10-16T05:27:00;16.00;99.90
6672;DHT22;3372;48.690;12.362;2022-10-16T05:29:25;15.90;99.90
6672;DHT22;3372;48.690;12.362;2022-10-16T05:31:52;15.80;99.90
6672;DHT22;3372;48.690;12.362;2022-10-16T05:34:18;15.80;99.90
6672;DHT22;3372;48.690;12.362;2022-10-16T05:36:44;15.90;99.90
6672;DHT22;3372;48.690;12.362;2022-10-16T05:39:10;16.00;99.90
6672;DHT22;3372;48.690;12.362;2022-10-16T05:41:36;16.00;99.90
6672;DHT22;3372;48.690;12.362;2022-10-16T05:44:04;16.00;99.90
6672;DHT22;3372;48.690;12.362;2022-10-16T05:46:31;15.90;99.90
6672;DHT22;3372;48.690;12.362;2022-10-16T05:48:56;16.00;99.90
6672;DHT22;3372;48.690;12.362;2022-10-16T05:51:22;16.00;99.90
6672;DHT22;3372;48.690;12.362;2022-10-16T05:53:47;16.00;99.90
6672;DHT22;3372;48.690;12.362;2022-10-16T05:56:13;16.00;99.90
6672;DHT22;3372;48.690;12.362;2022-10-16T05:58:38;16.00;99.90
6672;DHT22;3372;48.690;12.362;2022-10-16T06:01:14;16.00;99.90
6672;DHT22;3372;48.690;12.362;2022-10-16T06:03:41;16.00;99.90
6672;DHT22;3372;48.690;12.362;2022-10-16T06:06:21;15.90;99.90
6672;DHT22;3372;48.690;12.362;2022-10-16T06:08:49;16.00;99.90
6672;DHT22;3372;48.690;12.362;2022-10-16T06:11:19;16.00;99.90
6672;DHT22;3372;48.690;12.362;2022-10-16T06:13:49;16.00;99.90
6672;DHT22;3372;48.690;12.362;2022-10-16T06:16:15;16.00;99.90
6672;DHT22;3372;48.690;12.362;2022-10-16T06:18:41;16.10;99.90
6672;DHT22;3372;48.690;12.362;2022-10-16T06:21:17;16.10;99.90
6672;DHT22;3372;48.690;12.362;2022-10-16T06:23:43;16.10;99.90
6672;DHT22;3372;48.690;12.362;2022-10-16T06:26:10;15.90;99.90
6672;DHT22;3372;48.690;12.362;2022-10-16T06:28:37;15.90;99.90
6672;DHT22;3372;48.690;12.362;2022-10-16T06:31:04;15.90;99.90
6672;DHT22;3372;48.690;12.362;2022-10-16T06:33:30;16.00;99.90
6672;DHT22;3372;48.690;12.362;2022-10-16T06:36:08;16.10;99.90
6672;DHT22;3372;48.690;12.362;2022-10-16T06:38:35;16.20;99.90
6672;DHT22;3372;48.690;12.362;2022-10-16T06:41:02;16.20;99.90
6672;DHT22;3372;48.690;12.362;2022-10-16T06:43:31;16.30;99.90
6672;DHT22;3372;48.690;12.362;2022-10-16T06:45:59;16.40;99.90
6672;DHT22;3372;48.690;12.362;2022-10-16T06:48:25;16.30;99.90
6672;DHT22;3372;48.690;12.362;2022-10-16T06:53:23;16.20;99.90
6672;DHT22;3372;48.690;12.362;2022-10-16T06:55:48;16.30;99.90
6672;DHT22;3372;48.690;12.362;2022-10-16T06:58:14;16.40;99.90
6672;DHT22;3372;48.690;12.362;2022-10-16T07:00:40;16.30;99.90
6672;DHT22;3372;48.690;12.362;2022-10-16T07:03:05;16.30;99.90
6672;DHT22;3372;48.690;12.362;2022-10-16T07:05:31;16.20;99.90
6672;DHT22;3372;48.690;12.362;2022-10-16T07:07:56;16.30;99.90
6672;DHT22;3372;48.690;12.362;2022-10-16T07:10:22;16.40;99.90
6672;DHT22;3372;48.690;12.362;2022-10-16T07:12:49;16.70;99.90
6672;DHT22;3372;48.690;12.362;2022-10-16T07:15:15;17.10;99.90
6672;DHT22;3372;48.690;12.362;2022-10-16T07:17:40;17.50;99.90
6672;DHT22;3372;48.690;12.362;2022-10-16T07:20:06;17.80;99.90
6672;DHT22;3372;48.690;12.362;2022-10-16T07:22:32;18.00;99.90
6672;DHT22;3372;48.690;12.362;2022-10-16T07:24:58;18.30;99.90
6672;DHT22;3372;48.690;12.362;2022-10-16T07:27:24;18.40;99.90
6672;DHT22;3372;48.690;12.362;2022-10-16T07:29:50;18.60;99.90
6672;DHT22;3372;48.690;12.362;2022-10-16T07:32:15;18.50;99.90
6672;DHT22;3372;48.690;12.362;2022-10-16T07:34:41;18.70;99.90
6672;DHT22;3372;48.690;12.362;2022-10-16T07:37:07;18.90;99.90
6672;DHT22;3372;48.690;12.362;2022-10-16T07:39:33;18.90;99.90
6672;DHT22;3372;48.690;12.362;2022-10-16T07:41:59;18.60;99.90
6672;DHT22;3372;48.690;12.362;2022-10-16T07:44:24;18.40;99.90
6672;DHT22;3372;48.690;12.362;2022-10-16T07:46:50;18.20;99.90
6672;DHT22;3372;48.690;12.362;2022-10-16T07:49:15;18.10;99.90
6672;DHT22;3372;48.690;12.362;2022-10-16T07:51:41;18.10;99.90
6672;DHT22;3372;48.690;12.362;2022-10-16T07:54:08;18.10;99.90
6672;DHT22;3372;48.690;12.362;2022-10-16T07:56:34;18.10;99.90
6672;DHT22;3372;48.690;12.362;2022-10-16T07:59:00;18.20;99.90
6672;DHT22;3372;48.690;12.362;2022-10-16T08:01:26;18.00;99.90
6672;DHT22;3372;48.690;12.362;2022-10-16T08:03:52;18.00;99.90
6672;DHT22;3372;48.690;12.362;2022-10-16T08:06:19;18.10;99.90
6672;DHT22;3372;48.690;12.362;2022-10-16T08:08:44;18.10;99.90
6672;DHT22;3372;48.690;12.362;2022-10-16T08:11:10;18.10;99.90
6672;DHT22;3372;48.690;12.362;2022-10-16T08:13:37;18.00;99.90
6672;DHT22;3372;48.690;12.362;2022-10-16T08:16:03;18.00;99.90
6672;DHT22;3372;48.690;12.362;2022-10-16T08:18:34;18.10;99.90
6672;DHT22;3372;48.690;12.362;2022-10-16T08:21:00;18.10;99.90
6672;DHT22;3372;48.690;12.362;2022-10-16T08:23:26;18.10;99.90
6672;DHT22;3372;48.690;12.362;2022-10-16T08:25:53;18.10;99.90
6672;DHT22;3372;48.690;12.362;2022-10-16T08:28:19;18.10;99.90
6672;DHT22;3372;48.690;12.362;2022-10-16T08:30:45;18.10;99.90
6672;DHT22;3372;48.690;12.362;2022-10-16T08:33:10;18.00;99.90
6672;DHT22;3372;48.690;12.362;2022-10-16T08:35:36;18.30;99.90
6672;DHT22;3372;48.690;12.362;2022-10-16T08:38:05;18.50;99.90
6672;DHT22;3372;48.690;12.362;2022-10-16T08:40:33;18.80;97.90
6672;DHT22;3372;48.690;12.362;2022-10-16T08:48:52;19.10;95.10
6672;DHT22;3372;48.690;12.362;2022-10-16T08:51:27;19.30;95.90
6672;DHT22;3372;48.690;12.362;2022-10-16T08:54:02;19.20;96.00
6672;DHT22;3372;48.690;12.362;2022-10-16T08:56:28;19.40;95.00
6672;DHT22;3372;48.690;12.362;2022-10-16T08:58:54;19.30;95.10
6672;DHT22;3372;48.690;12.362;2022-10-16T09:01:25;19.40;95.30
6672;DHT22;3372;48.690;12.362;2022-10-16T09:04:29;19.50;96.10
6672;DHT22;3372;48.690;12.362;2022-10-16T09:12:19;19.70;92.90
6672;DHT22;3372;48.690;12.362;2022-10-16T09:15:07;19.80;92.80
6672;DHT22;3372;48.690;12.362;2022-10-16T09:22:54;20.00;91.80
6672;DHT22;3372;48.690;12.362;2022-10-16T09:25:23;19.90;92.40
6672;DHT22;3372;48.690;12.362;2022-10-16T09:27:52;19.90;91.10
6672;DHT22;3372;48.690;12.362;2022-10-16T09:30:20;19.90;90.90
6672;DHT22;3372;48.690;12.362;2022-10-16T09:32:48;20.10;90.60
6672;DHT22;3372;48.690;12.362;2022-10-16T09:35:20;20.10;89.00
6672;DHT22;3372;48.690;12.362;2022-10-16T09:37:51;20.20;91.60
6672;DHT22;3372;48.690;12.362;2022-10-16T09:40:44;20.20;87.60
6672;DHT22;3372;48.690;12.362;2022-10-16T09:43:23;20.30;88.00
6672;DHT22;3372;48.690;12.362;2022-10-16T09:45:58;20.40;89.90
6672;DHT22;3372;48.690;12.362;2022-10-16T09:48:28;20.40;85.90
6672;DHT22;3372;48.690;12.362;2022-10-16T09:51:00;20.40;89.00
6672;DHT22;3372;48.690;12.362;2022-10-16T09:53:40;20.40;90.30
6672;DHT22;3372;48.690;12.362;2022-10-16T09:56:06;20.40;89.30
6672;DHT22;3372;48.690;12.362;2022-10-16T09:58:32;20.50;89.00
6672;DHT22;3372;48.690;12.362;2022-10-16T10:00:59;20.60;85.20
6672;DHT22;3372;48.690;12.362;2022-10-16T10:03:40;20.60;87.20
6672;DHT22;3372;48.690;12.362;2022-10-16T10:08:52;20.80;86.60
6672;DHT22;3372;48.690;12.362;2022-10-16T10:11:17;20.70;84.80
6672;DHT22;3372;48.690;12.362;2022-10-16T10:13:43;20.60;86.60
6672;DHT22;3372;48.690;12.362;2022-10-16T10:16:09;20.70;85.50
6672;DHT22;3372;48.690;12.362;2022-10-16T10:18:34;20.80;86.20
6672;DHT22;3372;48.690;12.362;2022-10-16T10:21:01;20.70;80.20
6672;DHT22;3372;48.690;12.362;2022-10-16T10:23:28;20.80;84.70
6672;DHT22;3372;48.690;12.362;2022-10-16T10:31:57;20.90;77.60
6672;DHT22;3372;48.690;12.362;2022-10-16T10:37:32;20.90;80.40
6672;DHT22;3372;48.690;12.362;2022-10-16T10:43:14;21.00;79.00
6672;DHT22;3372;48.690;12.362;2022-10-16T10:45:46;21.10;76.80
6672;DHT22;3372;48.690;12.362;2022-10-16T10:58:55;21.30;75.40
6672;DHT22;3372;48.690;12.362;2022-10-16T11:01:31;21.30;75.30
6672;DHT22;3372;48.690;12.362;2022-10-16T11:06:57;21.40;73.70
6672;DHT22;3372;48.690;12.362;2022-10-16T11:09:37;21.50;76.20
6672;DHT22;3372;48.690;12.362;2022-10-16T11:12:29;21.50;72.50
6672;DHT22;3372;48.690;12.362;2022-10-16T11:18:42;21.60;74.00
6672;DHT22;3372;48.690;12.362;2022-10-16T11:20:45;21.60;71.60
6672;DHT22;3372;48.690;12.362;2022-10-16T11:23:31;21.50;72.40
6672;DHT22;3372;48.690;12.362;2022-10-16T11:26:02;21.70;73.20
6672;DHT22;3372;48.690;12.362;2022-10-16T11:28:39;21.70;71.60
6672;DHT22;3372;48.690;12.362;2022-10-16T11:37:02;21.90;71.00
6672;DHT22;3372;48.690;12.362;2022-10-16T11:39:30;21.90;69.90
6672;DHT22;3372;48.690;12.362;2022-10-16T11:42:13;21.90;72.10
6672;DHT22;3372;48.690;12.362;2022-10-16T11:50:06;22.00;66.30
6672;DHT22;3372;48.690;12.362;2022-10-16T11:52:48;22.10;65.40
6672;DHT22;3372;48.690;12.362;2022-10-16T11:55:20;22.10;65.10
6672;DHT22;3372;48.690;12.362;2022-10-16T11:57:51;22.10;66.60
6672;DHT22;3372;48.690;12.362;2022-10-16T12:08:10;22.30;64.00
6672;DHT22;3372;48.690;12.362;2022-10-16T12:10:37;22.30;65.90
6672;DHT22;3372;48.690;12.362;2022-10-16T12:13:39;22.30;66.70
6672;DHT22;3372;48.690;12.362;2022-10-16T12:16:28;22.40;63.10
6672;DHT22;3372;48.690;12.362;2022-10-16T12:19:13;22.40;67.20
6672;DHT22;3372;48.690;12.362;2022-10-16T12:21:41;22.40;63.90
6672;DHT22;3372;48.690;12.362;2022-10-16T12:27:38;22.60;63.50
6672;DHT22;3372;48.690;12.362;2022-10-16T12:30:06;22.60;60.00
6672;DHT22;3372;48.690;12.362;2022-10-16T12:32:32;22.50;60.70
6672;DHT22;3372;48.690;12.362;2022-10-16T12:35:00;22.60;62.90
6672;DHT22;3372;48.690;12.362;2022-10-16T12:37:32;22.50;59.10
6672;DHT22;3372;48.690;12.362;2022-10-16T12:39:59;22.50;58.80
6672;DHT22;3372;48.690;12.362;2022-10-16T12:42:36;22.60;62.90
6672;DHT22;3372;48.690;12.362;2022-10-16T12:45:23;22.60;60.20
6672;DHT22;3372;48.690;12.362;2022-10-16T12:47:52;22.70;55.90
6672;DHT22;3372;48.690;12.362;2022-10-16T12:50:31;22.80;59.70
6672;DHT22;3372;48.690;12.362;2022-10-16T12:52:58;22.80;58.40
6672;DHT22;3372;48.690;12.362;2022-10-16T12:55:24;22.80;59.00
6672;DHT22;3372;48.690;12.362;2022-10-16T12:58:23;22.80;56.70
6672;DHT22;3372;48.690;12.362;2022-10-16T13:00:58;22.90;55.60
6672;DHT22;3372;48.690;12.362;2022-10-16T13:09:18;22.90;54.90
6672;DHT22;3372;48.690;12.362;2022-10-16T13:15:06;22.90;54.40
6672;DHT22;3372;48.690;12.362;2022-10-16T13:22:43;22.90;60.80
6672;DHT22;3372;48.690;12.362;2022-10-16T13:27:56;23.00;59.20
6672;DHT22;3372;48.690;12.362;2022-10-16T13:30:27;23.10;60.40
6672;DHT22;3372;48.690;12.362;2022-10-16T13:35:49;23.10;57.50
6672;DHT22;3372;48.690;12.362;2022-10-16T13:38:18;23.10;56.50
6672;DHT22;3372;48.690;12.362;2022-10-16T13:40:49;23.00;56.10
6672;DHT22;3372;48.690;12.362;2022-10-16T13:43:21;23.10;57.20
6672;DHT22;3372;48.690;12.362;2022-10-16T13:48:24;23.00;55.10
6672;DHT22;3372;48.690;12.362;2022-10-16T13:53:34;23.00;54.60
6672;DHT22;3372;48.690;12.362;2022-10-16T13:56:02;23.00;57.20
6672;DHT22;3372;48.690;12.362;2022-10-16T13:58:28;23.10;58.80
6672;DHT22;3372;48.690;12.362;2022-10-16T14:01:02;23.10;58.20
6672;DHT22;3372;48.690;12.362;2022-10-16T14:03:29;23.20;59.30
6672;DHT22;3372;48.690;12.362;2022-10-16T14:06:03;23.30;60.10
6672;DHT22;3372;48.690;12.362;2022-10-16T14:08:30;23.30;56.80
6672;DHT22;3372;48.690;12.362;2022-10-16T14:10:59;23.40;56.10
6672;DHT22;3372;48.690;12.362;2022-10-16T14:13:43;23.30;58.50
6672;DHT22;3372;48.690;12.362;2022-10-16T14:16:19;23.30;55.90
6672;DHT22;3372;48.690;12.362;2022-10-16T14:19:00;23.40;56.10
6672;DHT22;3372;48.690;12.362;2022-10-16T14:21:27;23.40;52.50
6672;DHT22;3372;48.690;12.362;2022-10-16T14:23:53;23.30;55.70
6672;DHT22;3372;48.690;12.362;2022-10-16T14:26:25;23.30;57.30
6672;DHT22;3372;48.690;12.362;2022-10-16T14:29:09;23.30;58.00
6672;DHT22;3372;48.690;12.362;2022-10-16T14:31:35;23.30;51.50
6672;DHT22;3372;48.690;12.362;2022-10-16T14:34:02;23.30;53.80
6672;DHT22;3372;48.690;12.362;2022-10-16T14:36:29;23.30;52.80
6672;DHT22;3372;48.690;12.362;2022-10-16T14:39:04;23.30;53.30
6672;DHT22;3372;48.690;12.362;2022-10-16T14:41:41;23.20;50.60
6672;DHT22;3372;48.690;12.362;2022-10-16T14:44:10;23.20;55.60
6672;DHT22;3372;48.690;12.362;2022-10-16T14:46:39;23.20;55.50
6672;DHT22;3372;48.690;12.362;2022-10-16T14:49:17;23.20;56.10
6672;DHT22;3372;48.690;12.362;2022-10-16T14:51:45;23.20;53.90
6672;DHT22;3372;48.690;12.362;2022-10-16T14:54:13;23.20;59.30
6672;DHT22;3372;48.690;12.362;2022-10-16T14:56:48;23.10;61.30
6672;DHT22;3372;48.690;12.362;2022-10-16T14:59:32;23.00;63.40
6672;DHT22;3372;48.690;12.362;2022-10-16T15:01:59;23.10;64.20
6672;DHT22;3372;48.690;12.362;2022-10-16T15:04:26;23.10;64.50
6672;DHT22;3372;48.690;12.362;2022-10-16T15:06:51;23.10;65.90
6672;DHT22;3372;48.690;12.362;2022-10-16T15:09:17;23.00;66.10
6672;DHT22;3372;48.690;12.362;2022-10-16T15:11:43;23.00;67.00
6672;DHT22;3372;48.690;12.362;2022-10-16T15:14:12;23.00;67.50
6672;DHT22;3372;48.690;12.362;2022-10-16T15:16:38;22.90;68.20
6672;DHT22;3372;48.690;12.362;2022-10-16T15:19:04;22.80;68.90
6672;DHT22;3372;48.690;12.362;2022-10-16T15:21:31;22.70;69.70
6672;DHT22;3372;48.690;12.362;2022-10-16T15:23:58;22.70;70.20
6672;DHT22;3372;48.690;12.362;2022-10-16T15:26:25;22.70;69.80
6672;DHT22;3372;48.690;12.362;2022-10-16T15:28:51;22.60;69.50
6672;DHT22;3372;48.690;12.362;2022-10-16T15:31:16;22.60;69.70
6672;DHT22;3372;48.690;12.362;2022-10-16T15:33:42;22.50;70.20
6672;DHT22;3372;48.690;12.362;2022-10-16T15:36:08;22.40;70.90
6672;DHT22;3372;48.690;12.362;2022-10-16T15:38:33;22.40;71.70
6672;DHT22;3372;48.690;12.362;2022-10-16T15:40:59;22.40;71.70
6672;DHT22;3372;48.690;12.362;2022-10-16T15:43:25;22.30;71.70
6672;DHT22;3372;48.690;12.362;2022-10-16T15:46:05;22.20;71.60
6672;DHT22;3372;48.690;12.362;2022-10-16T15:48:32;22.10;71.90
6672;DHT22;3372;48.690;12.362;2022-10-16T15:50:58;22.00;72.10
6672;DHT22;3372;48.690;12.362;2022-10-16T15:53:24;21.90;72.50
6672;DHT22;3372;48.690;12.362;2022-10-16T15:55:50;21.80;73.20
6672;DHT22;3372;48.690;12.362;2022-10-16T15:58:15;21.80;73.00
6672;DHT22;3372;48.690;12.362;2022-10-16T16:00:41;21.80;72.90
6672;DHT22;3372;48.690;12.362;2022-10-16T16:03:06;21.80;72.90
6672;DHT22;3372;48.690;12.362;2022-10-16T16:05:32;21.70;73.00
6672;DHT22;3372;48.690;12.362;2022-10-16T16:07:59;21.60;72.90
6672;DHT22;3372;48.690;12.362;2022-10-16T16:10:24;21.60;72.90
6672;DHT22;3372;48.690;12.362;2022-10-16T16:12:50;21.50;72.80
6672;DHT22;3372;48.690;12.362;2022-10-16T16:15:19;21.40;73.30
6672;DHT22;3372;48.690;12.362;2022-10-16T16:17:45;21.40;73.20
6672;DHT22;3372;48.690;12.362;2022-10-16T16:20:10;21.30;72.90
6672;DHT22;3372;48.690;12.362;2022-10-16T16:22:36;21.30;72.90
6672;DHT22;3372;48.690;12.362;2022-10-16T16:25:02;21.20;72.90
6672;DHT22;3372;48.690;12.362;2022-10-16T16:27:27;21.10;72.80
6672;DHT22;3372;48.690;12.362;2022-10-16T16:29:55;21.10;72.70
6672;DHT22;3372;48.690;12.362;2022-10-16T16:32:21;21.00;72.90
6672;DHT22;3372;48.690;12.362;2022-10-16T16:34:47;21.00;72.40
6672;DHT22;3372;48.690;12.362;2022-10-16T16:37:13;20.90;72.20
6672;DHT22;3372;48.690;12.362;2022-10-16T16:39:38;20.90;72.40
6672;DHT22;3372;48.690;12.362;2022-10-16T16:42:04;20.90;72.00
6672;DHT22;3372;48.690;12.362;2022-10-16T16:44:32;20.80;71.80
6672;DHT22;3372;48.690;12.362;2022-10-16T16:46:57;20.60;72.10
6672;DHT22;3372;48.690;12.362;2022-10-16T16:49:23;20.50;72.50
6672;DHT22;3372;48.690;12.362;2022-10-16T16:51:49;20.40;73.90
6672;DHT22;3372;48.690;12.362;2022-10-16T16:54:15;20.40;73.60
6672;DHT22;3372;48.690;12.362;2022-10-16T16:56:41;20.40;73.10
6672;DHT22;3372;48.690;12.362;2022-10-16T16:59:16;20.30;73.00
6672;DHT22;3372;48.690;12.362;2022-10-16T17:01:43;20.20;74.10
6672;DHT22;3372;48.690;12.362;2022-10-16T17:04:09;20.20;73.90
6672;DHT22;3372;48.690;12.362;2022-10-16T17:06:36;20.20;73.10
6672;DHT22;3372;48.690;12.362;2022-10-16T17:09:03;20.10;72.90
6672;DHT22;3372;48.690;12.362;2022-10-16T17:11:29;20.10;72.80
6672;DHT22;3372;48.690;12.362;2022-10-16T17:13:56;20.00;73.00
6672;DHT22;3372;48.690;12.362;2022-10-16T17:16:26;19.90;72.40
6672;DHT22;3372;48.690;12.362;2022-10-16T17:18:52;19.90;72.70
6672;DHT22;3372;48.690;12.362;2022-10-16T17:21:18;19.80;72.50
6672;DHT22;3372;48.690;12.362;2022-10-16T17:23:44;19.80;74.40
6672;DHT22;3372;48.690;12.362;2022-10-16T17:26:13;19.70;73.60
6672;DHT22;3372;48.690;12.362;2022-10-16T17:28:40;19.70;73.20
6672;DHT22;3372;48.690;12.362;2022-10-16T17:33:34;19.70;73.50
6672;DHT22;3372;48.690;12.362;2022-10-16T17:35:59;19.60;74.10
6672;DHT22;3372;48.690;12.362;2022-10-16T17:38:25;19.60;74.50
6672;DHT22;3372;48.690;12.362;2022-10-16T17:40:51;19.60;75.10
6672;DHT22;3372;48.690;12.362;2022-10-16T17:43:16;19.60;75.00
6672;DHT22;3372;48.690;12.362;2022-10-16T17:45:42;19.50;75.20
6672;DHT22;3372;48.690;12.362;2022-10-16T17:48:08;19.50;76.60
6672;DHT22;3372;48.690;12.362;2022-10-16T17:50:33;19.50;76.40
6672;DHT22;3372;48.690;12.362;2022-10-16T17:52:59;19.50;76.80